Time;durP1;ratioP1;P1;durP2;ratioP2;P2;SDS_P1;SDS_P2;PMS_P1;PMS_P2;Temp;Humidity;BMP_temperature;BMP_pressure;BME280_temperature;BME280_humidity;BME280_pressure;Samples;Min_cycle;Max_cycle;Signal;HPM_P1;HPM_P2
2022/03/06 00:02:22;;;;;;;31.45;17.35;;;26.10;2201.60;;;;;;5070261;28;20025;-72
2022/03/06 00:04:51;;;;;;;34.25;18.25;;;26.10;2201.60;;;;;;5062892;28;20031;-73
2022/03/06 00:07:16;;;;;;;30.17;16.77;;;26.10;2201.60;;;;;;5064782;28;20029;-73
2022/03/06 00:09:42;;;;;;;30.27;16.23;;;26.10;2201.60;;;;;;5062737;28;20384;-73
2022/03/06 00:12:08;;;;;;;26.70;14.18;;;26.10;2201.60;;;;;;5064452;28;20032;-73
2022/03/06 00:14:34;;;;;;;22.40;14.30;;;26.10;2201.60;;;;;;5064449;28;20028;-73
2022/03/06 00:17:00;;;;;;;22.58;14.50;;;26.10;2201.60;;;;;;5065782;28;20032;-73
2022/03/06 00:19:25;;;;;;;23.67;14.05;;;26.10;2201.60;;;;;;5066300;28;20108;-75
2022/03/06 00:21:54;;;;;;;31.83;18.27;;;26.00;2201.60;;;;;;5061384;28;20412;-74
2022/03/06 00:24:20;;;;;;;31.80;18.80;;;26.00;2201.60;;;;;;5069539;28;20021;-73
2022/03/06 00:26:45;;;;;;;35.17;17.20;;;26.10;2201.60;;;;;;5061002;28;20077;-74
2022/03/06 00:29:11;;;;;;;31.10;15.25;;;26.10;2201.60;;;;;;5064477;28;20129;-73
2022/03/06 00:31:39;;;;;;;27.75;16.40;;;26.00;2201.60;;;;;;5064356;28;20427;-74
2022/03/06 00:34:04;;;;;;;33.50;19.80;;;26.10;2201.60;;;;;;5066247;28;20103;-75
2022/03/06 00:36:30;;;;;;;34.10;20.50;;;26.10;2201.60;;;;;;5064187;28;20175;-75
2022/03/06 00:38:56;;;;;;;32.65;18.95;;;26.10;2201.60;;;;;;5060865;28;20522;-74
2022/03/06 00:41:23;;;;;;;29.60;16.70;;;26.00;2201.60;;;;;;5062627;28;20525;-74
2022/03/06 00:43:49;;;;;;;40.80;21.92;;;26.00;2201.60;;;;;;5066307;28;20106;-75
2022/03/06 00:46:15;;;;;;;35.75;18.33;;;26.00;2201.60;;;;;;5066026;28;20028;-74
2022/03/06 00:48:41;;;;;;;35.40;20.30;;;25.90;2201.60;;;;;;5065363;28;20182;-74
2022/03/06 00:51:07;;;;;;;29.58;16.63;;;25.90;2201.60;;;;;;5064680;28;20094;-74
2022/03/06 00:53:32;;;;;;;29.50;17.33;;;25.90;2201.60;;;;;;5063705;28;20373;-73
2022/03/06 00:55:58;;;;;;;29.20;16.70;;;25.90;2201.60;;;;;;5063825;28;20468;-73
2022/03/06 00:58:24;;;;;;;35.30;18.95;;;25.90;2201.60;;;;;;5065924;28;20969;-73
2022/03/06 01:00:49;;;;;;;30.80;18.05;;;25.80;2201.60;;;;;;5071432;28;20740;-73
2022/03/06 01:03:22;;;;;;;28.55;15.93;;;25.70;2201.60;;;;;;5057272;28;20039;-74
2022/03/06 01:05:51;;;;;;;33.88;19.33;;;25.70;2201.60;;;;;;5061918;28;20020;-74
2022/03/06 01:08:16;;;;;;;30.60;16.45;;;0.90;2201.60;;;;;;5064659;28;20097;-74
2022/03/06 01:10:45;;;;;;;28.98;14.82;;;0.80;2201.60;;;;;;5058378;28;20111;-73
2022/03/06 01:13:14;;;;;;;26.23;15.18;;;0.70;2201.60;;;;;;5061717;28;20040;-74
2022/03/06 01:15:52;;;;;;;26.75;16.30;;;0.70;2201.60;;;;;;5062288;28;20158;-75
2022/03/06 01:18:23;;;;;;;31.67;17.90;;;0.70;2201.60;;;;;;5064285;28;20480;-74
2022/03/06 01:20:51;;;;;;;26.50;14.55;;;0.70;2201.60;;;;;;5064776;28;20016;-73
2022/03/06 01:23:20;;;;;;;25.20;14.18;;;0.70;2201.60;;;;;;5061156;28;20059;-73
2022/03/06 01:25:46;;;;;;;27.70;13.48;;;0.50;2201.60;;;;;;5065340;28;20025;-72
2022/03/06 01:28:11;;;;;;;21.27;13.40;;;0.40;2201.60;;;;;;5061006;28;20037;-73
2022/03/06 01:30:37;;;;;;;23.58;13.85;;;0.30;2201.60;;;;;;5057170;28;20484;-73
2022/03/06 01:33:03;;;;;;;22.13;12.40;;;0.20;2201.60;;;;;;5067265;28;20032;-74
2022/03/06 01:35:32;;;;;;;30.15;13.43;;;0.10;2201.60;;;;;;5063617;28;20028;-74
2022/03/06 01:37:58;;;;;;;24.25;13.07;;;0.10;2201.60;;;;;;5061006;28;20131;-73
2022/03/06 01:40:24;;;;;;;24.27;13.23;;;0.10;2201.60;;;;;;5063761;28;20104;-75
2022/03/06 01:42:52;;;;;;;27.35;14.35;;;0.20;2201.60;;;;;;5064580;28;20023;-74
2022/03/06 01:45:23;;;;;;;24.40;15.68;;;0.20;2201.60;;;;;;5064023;28;20487;-73
2022/03/06 01:47:54;;;;;;;26.60;16.33;;;0.20;2201.60;;;;;;5061673;28;20031;-73
2022/03/06 01:50:29;;;;;;;26.40;15.23;;;0.20;2201.60;;;;;;5063828;28;20024;-74
2022/03/06 01:52:57;;;;;;;34.25;16.58;;;0.30;2201.60;;;;;;5066025;28;20017;-73
2022/03/06 01:55:25;;;;;;;19.60;13.93;;;0.30;2201.60;;;;;;5063762;28;20049;-73
2022/03/06 01:57:53;;;;;;;23.88;13.98;;;0.20;2201.60;;;;;;5062702;28;20021;-73
2022/03/06 02:00:25;;;;;;;18.10;12.55;;;0.20;2201.60;;;;;;5065074;28;20017;-73
2022/03/06 02:02:52;;;;;;;23.00;13.32;;;0.10;2201.60;;;;;;5058539;28;20021;-73
2022/03/06 02:05:18;;;;;;;23.65;13.88;;;0.10;2201.60;;;;;;5063444;28;20032;-73
2022/03/06 02:07:44;;;;;;;21.90;14.02;;;0.10;2201.60;;;;;;5060049;28;20025;-73
2022/03/06 02:10:11;;;;;;;25.70;14.90;;;0.10;2201.60;;;;;;5062424;28;20515;-73
2022/03/06 02:12:59;;;;;;;28.63;14.95;;;0.10;2201.60;;;;;;5062031;28;20025;-73
2022/03/06 02:15:25;;;;;;;27.95;15.00;;;0.10;2201.60;;;;;;5068027;28;20021;-74
2022/03/06 02:18:15;;;;;;;30.25;16.40;;;0.10;2201.60;;;;;;5063495;28;20027;-73
2022/03/06 02:20:41;;;;;;;27.02;17.35;;;0.10;2201.60;;;;;;5063540;28;20108;-73
2022/03/06 02:23:07;;;;;;;24.92;14.48;;;0.00;2201.60;;;;;;5063282;28;20096;-72
2022/03/06 02:25:35;;;;;;;31.17;16.05;;;0.00;2201.60;;;;;;5061576;28;20078;-73
2022/03/06 02:28:04;;;;;;;21.63;13.98;;;0.00;2201.60;;;;;;5061653;28;20051;-73
2022/03/06 02:30:35;;;;;;;22.63;15.10;;;0.00;2201.60;;;;;;5060840;28;20029;-73
2022/03/06 02:33:07;;;;;;;26.13;14.75;;;0.00;2201.60;;;;;;5065243;28;20035;-73
2022/03/06 02:35:34;;;;;;;33.75;15.50;;;0.00;2201.60;;;;;;5060062;28;20029;-74
2022/03/06 02:38:00;;;;;;;25.70;15.10;;;0.00;2201.60;;;;;;5062148;28;20049;-73
2022/03/06 02:40:26;;;;;;;32.15;18.42;;;0.00;2201.60;;;;;;5063765;28;20020;-74
2022/03/06 02:42:56;;;;;;;29.10;17.15;;;0.00;2201.60;;;;;;5063546;28;20051;-73
2022/03/06 02:45:27;;;;;;;29.15;16.30;;;0.10;2201.60;;;;;;5058786;28;20074;-74
2022/03/06 02:50:41;;;;;;;25.45;13.80;;;0.00;2201.60;;;;;;5063197;28;20035;-73
2022/03/06 02:53:08;;;;;;;26.63;13.75;;;0.00;2201.60;;;;;;5066146;28;20422;-73
2022/03/06 02:55:34;;;;;;;25.92;15.60;;;0.00;2201.60;;;;;;5071005;28;20021;-73
2022/03/06 02:58:00;;;;;;;28.13;15.10;;;0.00;2201.60;;;;;;5069030;28;20124;-74
2022/03/06 03:00:26;;;;;;;24.92;14.20;;;12.90;2201.60;;;;;;5063860;28;20107;-74
2022/03/06 03:02:55;;;;;;;29.92;14.43;;;0.00;2201.60;;;;;;5062552;28;20030;-74
2022/03/06 03:05:21;;;;;;;33.28;15.48;;;12.90;2201.60;;;;;;5058847;28;20060;-72
2022/03/06 03:07:49;;;;;;;26.27;16.75;;;0.00;2201.60;;;;;;5062211;28;20403;-73
2022/03/06 03:10:20;;;;;;;32.83;17.10;;;0.00;2201.60;;;;;;5061968;28;20036;-73
2022/03/06 03:12:53;;;;;;;27.52;15.30;;;12.90;2201.60;;;;;;5059198;28;20071;-73
2022/03/06 03:15:19;;;;;;;20.77;12.73;;;0.00;2201.60;;;;;;5075928;28;20531;-74
2022/03/06 03:17:45;;;;;;;24.58;14.57;;;13.00;2201.60;;;;;;5062745;28;20108;-74
2022/03/06 03:20:13;;;;;;;30.17;14.30;;;13.00;2201.60;;;;;;5066173;28;20100;-73
2022/03/06 03:22:39;;;;;;;23.58;13.38;;;13.10;2201.60;;;;;;5062408;28;20029;-74
2022/03/06 03:25:09;;;;;;;24.23;13.77;;;13.10;2201.60;;;;;;5065321;28;20472;-74
2022/03/06 03:27:36;;;;;;;24.40;13.95;;;13.10;2201.60;;;;;;5064845;28;20046;-74
2022/03/06 03:30:07;;;;;;;24.42;14.45;;;13.20;2201.60;;;;;;5063672;28;20025;-73
2022/03/06 03:32:37;;;;;;;24.17;13.00;;;13.20;2201.60;;;;;;5069039;28;20050;-76
2022/03/06 03:35:03;;;;;;;25.38;14.80;;;13.20;2201.60;;;;;;5063540;28;20029;-74
2022/03/06 03:37:29;;;;;;;26.88;14.15;;;13.20;2201.60;;;;;;5063418;28;20480;-74
2022/03/06 03:40:04;;;;;;;28.52;15.85;;;13.20;2201.60;;;;;;5063588;28;20029;-73
2022/03/06 03:42:51;;;;;;;29.35;16.55;;;13.30;2201.60;;;;;;5065866;28;20515;-74
2022/03/06 03:45:16;;;;;;;30.15;18.35;;;13.30;2201.60;;;;;;5067131;28;20025;-74
2022/03/06 03:47:42;;;;;;;31.00;16.60;;;13.20;2201.60;;;;;;5066035;28;20029;-74
2022/03/06 03:50:08;;;;;;;31.17;19.20;;;13.20;2201.60;;;;;;5065352;28;20070;-73
2022/03/06 03:52:34;;;;;;;28.77;17.70;;;13.10;2201.60;;;;;;5079863;28;20033;-74
2022/03/06 03:55:00;;;;;;;31.73;18.98;;;13.10;2201.60;;;;;;5064410;28;20032;-74
2022/03/06 03:57:26;;;;;;;27.88;16.52;;;13.10;2201.60;;;;;;5064331;28;20025;-73
2022/03/06 03:59:52;;;;;;;26.95;14.75;;;13.10;2201.60;;;;;;5061641;28;20036;-73
2022/03/06 04:02:18;;;;;;;30.55;17.20;;;13.10;2201.60;;;;;;5068556;28;20020;-73
2022/03/06 04:04:44;;;;;;;30.27;14.95;;;13.10;2201.60;;;;;;5065301;28;20021;-73
2022/03/06 04:07:10;;;;;;;30.40;16.27;;;13.20;2201.60;;;;;;5065042;28;20033;-74
2022/03/06 04:09:35;;;;;;;28.10;14.23;;;13.20;2201.60;;;;;;5063998;28;20021;-74
2022/03/06 04:12:01;;;;;;;28.25;14.43;;;13.20;2201.60;;;;;;5066068;28;20807;-74
2022/03/06 04:14:27;;;;;;;25.15;14.77;;;13.20;2201.60;;;;;;5064896;28;20102;-74
2022/03/06 04:16:53;;;;;;;23.23;15.48;;;13.20;2201.60;;;;;;5065507;28;20435;-73
2022/03/06 04:19:19;;;;;;;26.08;14.77;;;13.20;2201.60;;;;;;5067220;28;20038;-73
2022/03/06 04:21:44;;;;;;;31.80;15.25;;;13.20;2201.60;;;;;;5063121;28;20074;-72
2022/03/06 04:24:10;;;;;;;26.25;14.77;;;13.20;2201.60;;;;;;5064501;28;20059;-73
2022/03/06 04:26:36;;;;;;;28.42;16.25;;;13.10;2201.60;;;;;;5060645;28;20027;-73
2022/03/06 04:29:03;;;;;;;28.45;16.35;;;13.10;2201.60;;;;;;5072257;28;20053;-74
2022/03/06 04:31:29;;;;;;;27.75;17.98;;;13.10;2201.60;;;;;;5064984;28;20069;-73
2022/03/06 04:33:55;;;;;;;30.15;18.95;;;13.10;2201.60;;;;;;5067707;28;20044;-73
2022/03/06 04:36:23;;;;;;;28.55;17.50;;;13.10;2201.60;;;;;;5068191;28;20036;-73
2022/03/06 04:38:49;;;;;;;29.75;18.42;;;13.00;2201.60;;;;;;5066088;28;20052;-72
2022/03/06 04:41:16;;;;;;;25.45;15.93;;;13.00;2201.60;;;;;;5069500;28;20021;-73
2022/03/06 04:43:41;;;;;;;29.15;17.55;;;13.00;2201.60;;;;;;5068451;28;20040;-73
2022/03/06 04:46:07;;;;;;;29.70;18.63;;;13.00;2201.60;;;;;;5064027;28;20109;-72
2022/03/06 04:48:33;;;;;;;29.13;18.67;;;12.90;2201.60;;;;;;5068409;28;20028;-76
2022/03/06 04:50:59;;;;;;;28.92;17.15;;;12.90;2201.60;;;;;;5085036;28;20041;-72
2022/03/06 04:53:33;;;;;;;31.75;16.98;;;12.90;2201.60;;;;;;5053284;28;20052;-73
2022/03/06 04:55:59;;;;;;;28.65;17.90;;;12.90;2201.60;;;;;;5059475;28;20492;-74
2022/03/06 04:58:25;;;;;;;32.55;18.20;;;12.90;2201.60;;;;;;5053390;28;20061;-74
2022/03/06 05:00:51;;;;;;;34.28;18.33;;;0.00;2201.60;;;;;;5056016;28;20033;-74
2022/03/06 05:03:16;;;;;;;29.40;18.13;;;0.00;2201.60;;;;;;5088507;28;20032;-74
2022/03/06 05:05:42;;;;;;;33.85;20.48;;;12.90;2201.60;;;;;;5088323;28;20039;-74
2022/03/06 05:08:17;;;;;;;35.22;19.38;;;12.90;2201.60;;;;;;5073126;28;20036;-74
2022/03/06 05:10:43;;;;;;;33.83;19.10;;;12.90;2201.60;;;;;;5071213;28;20048;-74
2022/03/06 05:13:09;;;;;;;32.95;19.67;;;12.90;2201.60;;;;;;5073045;28;20064;-74
2022/03/06 05:15:35;;;;;;;30.85;17.95;;;12.90;2201.60;;;;;;5088244;28;20029;-74
2022/03/06 05:18:01;;;;;;;28.45;17.25;;;12.90;2201.60;;;;;;5087622;28;20040;-74
2022/03/06 05:20:27;;;;;;;33.05;19.85;;;12.90;2201.60;;;;;;5071411;28;20039;-75
2022/03/06 05:22:53;;;;;;;37.13;20.80;;;12.90;2201.60;;;;;;5072335;28;20024;-74
2022/03/06 05:25:19;;;;;;;34.85;18.42;;;12.90;2201.60;;;;;;5072893;28;20033;-73
2022/03/06 05:27:45;;;;;;;32.85;18.92;;;0.00;2201.60;;;;;;5072576;28;20964;-73
2022/03/06 05:30:13;;;;;;;31.70;18.95;;;0.00;2201.60;;;;;;5087969;28;20028;-74
2022/03/06 05:32:40;;;;;;;33.83;19.85;;;0.00;2201.60;;;;;;5072260;28;20143;-73
2022/03/06 05:35:10;;;;;;;37.15;21.23;;;0.10;2201.60;;;;;;5072610;28;20687;-73
2022/03/06 05:37:36;;;;;;;33.30;20.52;;;0.20;2201.60;;;;;;5072141;28;20051;-75
2022/03/06 05:40:04;;;;;;;38.60;20.67;;;0.20;2201.60;;;;;;5070548;28;20120;-74
2022/03/06 05:42:54;;;;;;;42.63;20.05;;;0.10;2201.60;;;;;;5072411;28;20024;-74
2022/03/06 05:45:19;;;;;;;32.47;18.50;;;0.20;2201.60;;;;;;5071971;28;20020;-74
2022/03/06 05:47:45;;;;;;;30.17;18.50;;;0.20;2201.60;;;;;;5071810;28;20111;-74
2022/03/06 05:50:11;;;;;;;33.80;18.58;;;0.10;2201.60;;;;;;5070918;28;20111;-74
2022/03/06 05:52:37;;;;;;;32.25;17.98;;;0.10;2201.60;;;;;;5072081;28;20029;-74
2022/03/06 05:55:03;;;;;;;33.63;18.85;;;0.10;2201.60;;;;;;5087946;28;20422;-74
2022/03/06 05:57:30;;;;;;;32.17;17.55;;;0.10;2201.60;;;;;;5071975;28;20112;-74
2022/03/06 05:59:55;;;;;;;31.55;17.38;;;0.10;2201.60;;;;;;5087797;28;20028;-74
2022/03/06 06:02:22;;;;;;;27.77;18.10;;;0.10;2201.60;;;;;;5052673;28;20029;-74
2022/03/06 06:04:48;;;;;;;37.78;22.95;;;0.00;2201.60;;;;;;5052005;28;20479;-75
2022/03/06 06:07:14;;;;;;;36.97;20.92;;;0.00;2201.60;;;;;;5050210;28;20029;-75
2022/03/06 06:09:40;;;;;;;36.08;20.00;;;0.10;2201.60;;;;;;5050764;28;20122;-74
2022/03/06 06:12:06;;;;;;;39.85;21.17;;;0.00;2201.60;;;;;;5051616;28;20110;-74
2022/03/06 06:14:32;;;;;;;39.53;21.48;;;0.10;2201.60;;;;;;5052024;28;20550;-74
2022/03/06 06:16:58;;;;;;;39.03;23.42;;;0.10;2201.60;;;;;;5051734;28;20036;-74
2022/03/06 06:19:24;;;;;;;39.63;20.83;;;0.10;2201.60;;;;;;5055323;28;20104;-74
2022/03/06 06:21:49;;;;;;;36.70;20.75;;;0.20;2201.60;;;;;;5049841;28;20072;-74
2022/03/06 06:24:15;;;;;;;35.72;20.25;;;0.20;2201.60;;;;;;5051396;28;20098;-74
2022/03/06 06:26:43;;;;;;;36.53;21.45;;;0.30;2201.60;;;;;;5050397;28;20094;-74
2022/03/06 06:29:12;;;;;;;39.30;23.38;;;0.30;2201.60;;;;;;5051494;28;20021;-75
2022/03/06 06:31:38;;;;;;;36.35;21.85;;;0.30;2201.60;;;;;;5051656;28;20473;-75
2022/03/06 06:34:04;;;;;;;39.63;23.38;;;0.30;2201.60;;;;;;5065971;28;20048;-75
2022/03/06 06:36:30;;;;;;;37.83;22.83;;;0.40;2201.60;;;;;;5050626;28;20044;-74
2022/03/06 06:38:56;;;;;;;37.90;23.90;;;0.40;2201.60;;;;;;5051101;28;20041;-74
2022/03/06 06:41:21;;;;;;;42.25;23.80;;;0.40;2201.60;;;;;;5050206;28;20033;-75
2022/03/06 06:43:50;;;;;;;42.67;23.33;;;0.50;2201.60;;;;;;5051198;28;20027;-74
2022/03/06 06:46:16;;;;;;;38.90;21.63;;;0.70;2201.60;;;;;;5049665;28;20796;-74
2022/03/06 06:48:42;;;;;;;42.03;24.50;;;0.70;2201.60;;;;;;5068013;28;20032;-74
2022/03/06 06:51:11;;;;;;;53.72;29.40;;;25.60;2201.60;;;;;;5070889;28;20024;-74
2022/03/06 06:53:40;;;;;;;47.72;27.45;;;25.60;2201.60;;;;;;5086710;28;20064;-74
2022/03/06 06:56:05;;;;;;;36.72;21.80;;;25.70;2201.60;;;;;;5069617;28;20837;-74
2022/03/06 06:58:32;;;;;;;38.67;24.70;;;25.60;2201.60;;;;;;5070145;28;20036;-74
2022/03/06 07:00:57;;;;;;;37.88;21.98;;;25.80;2201.60;;;;;;5062239;28;20017;-74
2022/03/06 07:03:23;;;;;;;41.58;21.75;;;25.80;2201.60;;;;;;5061977;28;20039;-74
2022/03/06 07:05:52;;;;;;;41.72;22.75;;;25.80;2201.60;;;;;;5079378;28;20899;-74
2022/03/06 07:08:21;;;;;;;38.38;22.15;;;25.90;2201.60;;;;;;5061541;28;20025;-74
2022/03/06 07:10:47;;;;;;;42.15;25.13;;;26.00;2201.60;;;;;;5060675;28;20040;-74
2022/03/06 07:13:12;;;;;;;40.17;22.17;;;26.00;2201.60;;;;;;5058739;28;20032;-74
2022/03/06 07:15:38;;;;;;;36.88;22.10;;;26.00;2201.60;;;;;;5064451;28;20039;-74
2022/03/06 07:18:13;;;;;;;35.33;21.58;;;26.10;2201.60;;;;;;5067158;28;20081;-74
2022/03/06 07:20:40;;;;;;;45.95;24.58;;;26.20;2201.60;;;;;;5065156;28;20024;-74
2022/03/06 07:23:05;;;;;;;40.47;25.75;;;26.50;2201.60;;;;;;5059657;28;20025;-74
2022/03/06 07:25:31;;;;;;;44.67;26.20;;;51.20;2227.20;;;;;;5063975;28;20111;-74
2022/03/06 07:28:12;;;;;;;41.70;24.42;;;51.50;2227.20;;;;;;5061815;28;20432;-74
2022/03/06 07:30:38;;;;;;;38.00;26.35;;;51.60;2227.20;;;;;;5066568;28;20033;-74
2022/03/06 07:33:04;;;;;;;46.72;26.65;;;51.80;2227.20;;;;;;5061120;28;20036;-74
2022/03/06 07:35:30;;;;;;;38.85;24.08;;;51.90;2227.20;;;;;;5059145;28;20440;-74
2022/03/06 07:37:56;;;;;;;41.97;24.17;;;52.00;2227.20;;;;;;5059880;28;20485;-74
2022/03/06 07:40:23;;;;;;;42.78;24.92;;;52.10;2227.20;;;;;;5059265;28;20029;-74
2022/03/06 07:42:52;;;;;;;45.95;26.45;;;76.90;2227.20;;;;;;5068388;28;20028;-74
2022/03/06 07:45:18;;;;;;;41.72;24.88;;;77.10;2227.20;;;;;;5069535;28;20024;-75
2022/03/06 07:47:44;;;;;;;47.75;26.17;;;77.30;2227.20;;;;;;5069949;28;20025;-75
2022/03/06 07:50:12;;;;;;;43.78;26.88;;;77.30;2227.20;;;;;;5068833;28;20039;-75
2022/03/06 07:52:38;;;;;;;43.47;27.45;;;77.40;2227.20;;;;;;5070458;28;20021;-75
2022/03/06 07:55:06;;;;;;;43.25;26.80;;;77.50;2227.20;;;;;;5069153;28;20061;-74
2022/03/06 07:57:32;;;;;;;42.13;27.52;;;77.60;2227.20;;;;;;5067307;28;20028;-74
2022/03/06 07:59:57;;;;;;;41.58;25.25;;;77.70;2227.20;;;;;;5070663;28;20017;-74
2022/03/06 08:02:26;;;;;;;42.20;25.63;;;102.40;2227.20;;;;;;5070251;28;20035;-74
2022/03/06 08:04:55;;;;;;;43.78;27.25;;;102.40;2227.20;;;;;;5069263;28;20109;-75
2022/03/06 08:07:21;;;;;;;40.90;25.40;;;102.50;2227.20;;;;;;5067782;28;20410;-74
2022/03/06 08:09:47;;;;;;;43.75;26.27;;;102.60;2227.20;;;;;;5069261;28;20033;-74
2022/03/06 08:12:16;;;;;;;43.97;27.05;;;102.60;2227.20;;;;;;5060096;28;20033;-74
2022/03/06 08:14:41;;;;;;;43.75;28.00;;;102.90;2227.20;;;;;;5052569;28;20063;-74
2022/03/06 08:17:07;;;;;;;45.03;27.17;;;102.90;2227.20;;;;;;5052914;28;20064;-74
2022/03/06 08:19:33;;;;;;;49.47;29.08;;;103.00;2227.20;;;;;;5068935;28;20051;-74
2022/03/06 08:21:59;;;;;;;49.42;27.98;;;103.20;2227.20;;;;;;5073476;28;20017;-74
2022/03/06 08:24:25;;;;;;;41.58;26.33;;;128.00;2252.80;;;;;;5072077;28;20441;-75
2022/03/06 08:26:50;;;;;;;42.45;27.63;;;128.20;2252.80;;;;;;5071408;28;20028;-75
2022/03/06 08:29:16;;;;;;;40.15;24.35;;;128.30;2252.80;;;;;;5070469;28;20519;-74
2022/03/06 08:31:42;;;;;;;36.50;24.27;;;128.40;2252.80;;;;;;5072383;28;20404;-75
2022/03/06 08:34:08;;;;;;;41.42;24.70;;;128.40;2252.80;;;;;;5065139;28;20072;-75
2022/03/06 08:36:34;;;;;;;43.28;27.33;;;128.60;2252.80;;;;;;5067795;28;20489;-74
2022/03/06 08:39:00;;;;;;;37.63;24.08;;;128.60;2252.80;;;;;;5089145;28;20037;-75
2022/03/06 08:41:26;;;;;;;41.72;24.55;;;128.70;2252.80;;;;;;5071334;28;20039;-75
2022/03/06 08:43:51;;;;;;;37.42;22.45;;;128.70;2252.80;;;;;;5067558;28;20032;-74
2022/03/06 08:46:17;;;;;;;40.70;23.50;;;128.70;2252.80;;;;;;5071926;28;20105;-74
2022/03/06 08:48:43;;;;;;;32.50;20.95;;;128.90;2252.80;;;;;;5071672;28;20039;-74
2022/03/06 08:51:09;;;;;;;37.28;23.48;;;153.70;2252.80;;;;;;5065293;28;20032;-74
2022/03/06 08:53:34;;;;;;;42.00;25.27;;;154.00;2252.80;;;;;;5062084;28;20028;-75
2022/03/06 08:56:01;;;;;;;44.97;27.35;;;154.20;2252.80;;;;;;5063763;28;20021;-75
2022/03/06 08:58:29;;;;;;;40.03;25.25;;;154.40;2252.80;;;;;;5065457;28;20388;-74
2022/03/06 09:00:55;;;;;;;45.25;27.55;;;154.40;2252.80;;;;;;5068895;28;20025;-75
2022/03/06 09:03:21;;;;;;;40.53;25.73;;;154.50;2252.80;;;;;;5065782;28;20093;-74
2022/03/06 09:05:47;;;;;;;40.95;29.17;;;154.50;2252.80;;;;;;5069786;28;20086;-75
2022/03/06 09:08:18;;;;;;;41.08;25.98;;;154.50;2252.80;;;;;;5063749;28;20023;-74
2022/03/06 09:10:44;;;;;;;38.10;24.38;;;179.30;2252.80;;;;;;5061666;28;20025;-73
2022/03/06 09:13:16;;;;;;;39.92;26.80;;;179.60;2252.80;;;;;;5064181;28;20033;-74
2022/03/06 09:15:42;;;;;;;38.38;27.20;;;179.90;2252.80;;;;;;5061710;28;20067;-75
2022/03/06 09:18:07;;;;;;;39.10;26.67;;;204.80;2252.80;;;;;;5065081;28;20051;-75
2022/03/06 09:20:48;;;;;;;39.00;27.83;;;205.00;2252.80;;;;;;5064564;28;20399;-74
2022/03/06 09:23:14;;;;;;;40.40;25.90;;;205.20;2252.80;;;;;;5062986;28;20036;-74
2022/03/06 09:25:40;;;;;;;32.65;22.67;;;205.30;2252.80;;;;;;5061433;28;20484;-75
2022/03/06 09:28:08;;;;;;;35.90;23.35;;;205.50;2252.80;;;;;;5066617;28;20384;-75
2022/03/06 09:30:35;;;;;;;34.88;23.75;;;205.60;2252.80;;;;;;5076445;28;20467;-74
2022/03/06 09:33:01;;;;;;;37.13;25.42;;;205.70;2252.80;;;;;;5060371;28;20019;-75
2022/03/06 09:35:26;;;;;;;37.47;23.92;;;230.70;2252.80;;;;;;5064785;28;20024;-75
2022/03/06 09:37:52;;;;;;;39.22;25.15;;;231.00;2252.80;;;;;;5061570;28;20048;-75
2022/03/06 09:40:18;;;;;;;35.60;25.50;;;256.00;2227.20;;;;;;5059868;28;20377;-75
2022/03/06 09:42:44;;;;;;;36.15;25.75;;;256.40;2124.80;;;;;;5063154;28;20024;-75
2022/03/06 09:45:12;;;;;;;38.33;25.15;;;281.60;2022.40;;;;;;5069752;28;20024;-75
2022/03/06 09:47:46;;;;;;;41.13;28.98;;;281.90;1945.60;;;;;;5057613;28;20036;-75
2022/03/06 09:50:13;;;;;;;39.85;26.08;;;282.00;1868.80;;;;;;5062026;28;20037;-75
2022/03/06 09:52:40;;;;;;;38.55;26.58;;;282.10;1843.20;;;;;;5067212;28;20074;-76
2022/03/06 09:55:06;;;;;;;40.88;26.70;;;282.40;1817.60;;;;;;5059691;28;20021;-75
2022/03/06 09:57:32;;;;;;;40.03;28.73;;;282.40;1792.00;;;;;;5058840;28;20040;-75
2022/03/06 09:59:58;;;;;;;41.33;29.80;;;282.30;1792.00;;;;;;5064187;28;20369;-75
2022/03/06 10:02:24;;;;;;;46.47;29.13;;;282.10;1817.60;;;;;;5061736;28;20067;-75
2022/03/06 10:04:52;;;;;;;41.72;28.38;;;282.10;1817.60;;;;;;5062154;28;20066;-75
2022/03/06 10:07:21;;;;;;;36.47;27.23;;;282.20;1817.60;;;;;;5062549;28;20063;-75
2022/03/06 10:09:55;;;;;;;53.45;37.08;;;282.30;1843.20;;;;;;5061832;28;20119;-75
2022/03/06 10:12:27;;;;;;;39.90;26.88;;;282.40;1792.00;;;;;;5061860;28;20045;-75
2022/03/06 10:15:01;;;;;;;37.00;25.25;;;282.40;1766.40;;;;;;5064285;28;20013;-76
2022/03/06 10:17:36;;;;;;;38.70;26.73;;;282.40;1766.40;;;;;;5061925;28;20017;-75
2022/03/06 10:20:12;;;;;;;32.97;23.65;;;282.50;1766.40;;;;;;5067482;28;20031;-75
2022/03/06 10:22:41;;;;;;;37.95;25.60;;;307.20;1792.00;;;;;;5062699;28;20077;-75
2022/03/06 10:25:17;;;;;;;34.80;24.15;;;307.20;1766.40;;;;;;5066497;28;20052;-75
2022/03/06 10:27:46;;;;;;;;;;;282.20;1766.40;;;;;;5068409;28;20028;-74
2022/03/06 10:30:37;;;;;;;34.78;23.45;;;282.00;1792.00;;;;;;5068853;28;20382;-75
2022/03/06 10:33:16;;;;;;;37.13;25.40;;;282.00;1817.60;;;;;;5067796;28;20074;-76
2022/03/06 10:35:43;;;;;;;40.50;24.65;;;282.10;1792.00;;;;;;5064955;28;20131;-75
2022/03/06 10:38:26;;;;;;;41.83;27.58;;;282.20;1792.00;;;;;;5061728;28;20052;-76
2022/03/06 10:40:53;;;;;;;34.38;24.80;;;282.20;1792.00;;;;;;5059835;28;20050;-76
2022/03/06 10:43:33;;;;;;;44.33;28.88;;;282.00;1792.00;;;;;;5068481;28;20024;-76
2022/03/06 10:46:16;;;;;;;34.45;24.55;;;282.20;1792.00;;;;;;5070724;28;20483;-76
2022/03/06 10:48:54;;;;;;;37.70;25.70;;;282.00;1817.60;;;;;;5063357;28;20042;-77
2022/03/06 10:51:20;;;;;;;40.22;27.73;;;281.70;1843.20;;;;;;5069276;28;20036;-76
2022/03/06 10:53:57;;;;;;;42.15;28.45;;;281.60;1868.80;;;;;;5062799;28;20115;-76
2022/03/06 10:56:23;;;;;;;42.33;29.92;;;281.60;1920.00;;;;;;5078392;28;20055;-75
2022/03/06 10:58:57;;;;;;;40.00;27.58;;;281.60;1920.00;;;;;;5069079;28;20035;-76
2022/03/06 11:01:24;;;;;;;42.35;29.10;;;256.90;1945.60;;;;;;5070506;28;20055;-76
2022/03/06 11:03:50;;;;;;;42.85;29.05;;;256.80;1996.80;;;;;;5068602;28;20498;-76
2022/03/06 11:06:19;;;;;;;44.53;28.45;;;256.50;2099.20;;;;;;5068494;28;20021;-76
2022/03/06 11:08:45;;;;;;;42.08;26.95;;;256.20;2150.40;;;;;;5062917;28;20029;-76
2022/03/06 11:11:12;;;;;;;41.78;28.35;;;231.20;2252.80;;;;;;5059334;28;20400;-77
2022/03/06 11:13:39;;;;;;;43.25;27.00;;;231.00;2252.80;;;;;;5060645;28;20020;-76
2022/03/06 11:16:05;;;;;;;39.72;25.67;;;230.70;2252.80;;;;;;5057347;28;20486;-75
2022/03/06 11:18:32;;;;;;;38.90;26.38;;;230.60;2252.80;;;;;;5064688;28;20060;-76
2022/03/06 11:21:00;;;;;;;37.40;24.50;;;230.60;2252.80;;;;;;5065889;28;20012;-75
2022/03/06 11:23:31;;;;;;;41.50;27.65;;;230.50;2252.80;;;;;;5062769;28;20108;-76
2022/03/06 11:26:09;;;;;;;40.55;28.15;;;230.40;2252.80;;;;;;5062891;28;20016;-76
2022/03/06 11:29:09;;;;;;;48.83;27.75;;;230.40;2252.80;;;;;;5064471;28;20025;-75
2022/03/06 11:32:04;;;;;;;41.08;27.17;;;205.60;2252.80;;;;;;5062508;28;20513;-75
2022/03/06 11:34:42;;;;;;;45.40;30.52;;;205.40;2252.80;;;;;;5065297;28;20029;-74
2022/03/06 11:37:13;;;;;;;36.55;24.63;;;205.60;2252.80;;;;;;5056060;28;20037;-74
2022/03/06 11:39:38;;;;;;;37.53;25.35;;;205.50;2252.80;;;;;;5059896;28;20099;-74
2022/03/06 11:42:08;;;;;;;38.72;24.83;;;205.60;2252.80;;;;;;5057378;28;20423;-74
2022/03/06 11:44:37;;;;;;;38.15;25.92;;;205.60;2252.80;;;;;;5060938;28;20025;-74
2022/03/06 11:47:37;;;;;;;40.83;25.50;;;205.70;2252.80;;;;;;5067906;28;20020;-74
2022/03/06 11:50:08;;;;;;;38.17;25.58;;;205.60;2252.80;;;;;;5068111;28;20078;-75
2022/03/06 11:52:42;;;;;;;45.47;27.25;;;205.70;2252.80;;;;;;5062498;28;20361;-75
2022/03/06 11:55:28;;;;;;;44.45;26.25;;;230.50;2252.80;;;;;;5062029;28;20024;-75
2022/03/06 11:57:56;;;;;;;41.70;27.23;;;230.60;2252.80;;;;;;5070492;28;20028;-76
2022/03/06 12:00:25;;;;;;;50.05;31.45;;;230.70;2252.80;;;;;;5063980;28;20078;-76
2022/03/06 12:02:58;;;;;;;39.00;24.42;;;230.90;2252.80;;;;;;5067667;28;20066;-76
2022/03/06 12:06:19;;;;;;;42.72;27.42;;;230.90;2252.80;;;;;;5061602;28;20473;-75
2022/03/06 12:08:47;;;;;;;41.97;27.90;;;231.00;2252.80;;;;;;4992655;28;20573;-76
2022/03/06 12:11:14;;;;;;;36.83;24.95;;;230.80;2252.80;;;;;;4975475;28;20030;-76
2022/03/06 12:13:40;;;;;;;38.65;26.55;;;230.80;2252.80;;;;;;4998345;28;20044;-76
2022/03/06 12:16:08;;;;;;;40.85;26.58;;;230.80;2252.80;;;;;;5005373;28;20038;-76
2022/03/06 12:18:34;;;;;;;44.08;27.20;;;230.90;2252.80;;;;;;5008228;28;20044;-76